Time;durP1;ratioP1;P1;durP2;ratioP2;P2;SDS_P1;SDS_P2;PMS_P1;PMS_P2;Temp;Humidity;BMP_temperature;BMP_pressure;BME280_temperature;BME280_humidity;BME280_pressure;Samples;Min_cycle;Max_cycle;Signal;HPM_P1;HPM_P2
2022/11/18 00:01:28;;;;;;;21.23;18.93;;;;;;;8.77;79.29;93903.06;5063484;28;20274;-70
2022/11/18 00:03:53;;;;;;;26.07;19.47;;;;;;;8.80;79.25;93899.31;5069062;28;20233;-69
2022/11/18 00:06:22;;;;;;;24.23;19.20;;;;;;;8.84;78.85;93898.78;5063116;28;20188;-70
2022/11/18 00:08:47;;;;;;;29.10;19.53;;;;;;;8.83;79.02;93885.84;5063562;28;20184;-71
2022/11/18 00:14:21;;;;;;;21.63;19.00;;;;;;;8.88;79.10;93893.22;5082715;28;20296;-70
2022/11/18 00:16:47;;;;;;;23.53;19.77;;;;;;;8.91;78.87;93895.50;5061818;28;20236;-70
2022/11/18 00:19:13;;;;;;;22.23;19.83;;;;;;;8.87;78.70;93900.25;5064170;28;20656;-70
2022/11/18 00:21:38;;;;;;;23.90;19.67;;;;;;;8.75;78.78;93894.56;5071558;28;20281;-69
2022/11/18 00:24:04;;;;;;;25.43;20.17;;;;;;;8.73;79.35;93893.09;5061590;28;20179;-70
2022/11/18 00:26:29;;;;;;;21.60;18.47;;;;;;;8.74;79.56;93892.94;5064681;28;20184;-70
2022/11/18 00:28:55;;;;;;;21.60;19.40;;;;;;;8.75;79.89;93896.38;5064733;28;20322;-70
2022/11/18 00:31:20;;;;;;;21.60;18.23;;;;;;;8.74;79.86;93887.69;5065174;28;20199;-70
2022/11/18 00:33:46;;;;;;;25.40;18.43;;;;;;;8.83;79.82;93893.72;5061913;28;20204;-70
2022/11/18 00:36:12;;;;;;;23.60;17.57;;;;;;;8.83;79.65;93885.84;5065426;28;20341;-70
2022/11/18 00:38:38;;;;;;;20.93;18.80;;;;;;;8.80;79.61;93891.44;5061629;28;20204;-70
2022/11/18 00:41:09;;;;;;;24.87;19.17;;;;;;;8.76;79.68;93890.94;5079688;28;20192;-70
2022/11/18 00:43:35;;;;;;;20.83;17.30;;;;;;;8.67;79.74;93891.97;5067980;28;20188;-70
2022/11/18 00:46:01;;;;;;;20.00;17.33;;;;;;;8.62;80.06;93889.03;5057317;28;20203;-68
2022/11/18 00:48:27;;;;;;;19.20;17.07;;;;;;;8.56;80.13;93890.50;5067138;28;20200;-71
2022/11/18 00:50:55;;;;;;;19.77;17.67;;;;;;;8.48;80.33;93893.16;5061755;28;20192;-70
2022/11/18 00:53:22;;;;;;;22.70;17.90;;;;;;;8.33;80.90;93892.97;5064264;28;20211;-69
2022/11/18 00:55:48;;;;;;;21.47;17.03;;;;;;;8.45;81.12;93890.88;5069685;28;20192;-69
2022/11/18 00:58:14;;;;;;;25.20;17.67;;;;;;;8.71;79.66;93895.06;5062638;28;20195;-69
2022/11/18 01:00:47;;;;;;;20.20;18.10;;;;;;;8.65;78.68;93888.69;5069796;28;20185;-69
2022/11/18 01:03:13;;;;;;;24.17;18.97;;;;;;;8.48;79.16;93889.72;5066361;28;20180;-70
2022/11/18 01:05:39;;;;;;;23.70;18.03;;;;;;;8.36;78.95;93884.75;5065356;28;20199;-69
2022/11/18 01:08:06;;;;;;;20.43;17.90;;;;;;;8.33;79.75;93885.09;5071438;28;20254;-70
2022/11/18 01:10:32;;;;;;;23.10;18.23;;;;;;;8.18;79.76;93881.53;5066970;28;20197;-70
2022/11/18 01:15:43;;;;;;;25.13;18.87;;;;;;;8.23;80.08;93881.03;5082701;28;20902;-69
2022/11/18 01:18:09;;;;;;;29.03;20.73;;;;;;;8.12;80.03;93882.19;5070806;28;20196;-69
2022/11/18 01:20:36;;;;;;;23.33;20.30;;;;;;;8.32;80.17;93883.47;5064537;28;20224;-69
2022/11/18 01:23:02;;;;;;;25.87;19.23;;;;;;;8.26;80.12;93894.63;5073686;28;20305;-69
2022/11/18 01:25:28;;;;;;;21.27;18.87;;;;;;;8.20;79.90;93892.66;5071577;28;20617;-69
2022/11/18 01:27:54;;;;;;;22.77;20.13;;;;;;;8.26;80.16;93884.16;5065759;28;20200;-69
2022/11/18 01:30:20;;;;;;;24.53;19.07;;;;;;;8.21;80.06;93893.50;5066277;28;20196;-68
2022/11/18 01:32:45;;;;;;;22.10;16.90;;;;;;;8.24;79.62;93886.09;5073450;28;20534;-68
2022/11/18 01:35:11;;;;;;;18.23;16.30;;;;;;;8.19;81.03;93893.63;5067835;28;20199;-68
2022/11/18 01:37:37;;;;;;;20.77;17.30;;;;;;;8.15;80.02;93885.31;5069205;28;20189;-69
2022/11/18 01:40:07;;;;;;;21.07;17.67;;;;;;;8.18;79.78;93892.00;5079384;28;20191;-70
2022/11/18 01:42:35;;;;;;;21.27;16.70;;;;;;;8.15;79.36;93902.78;5070730;28;20192;-69
2022/11/18 01:45:16;;;;;;;17.30;15.50;;;;;;;8.18;79.61;93881.53;5067402;28;20211;-69
2022/11/18 01:47:50;;;;;;;19.77;15.90;;;;;;;8.24;80.13;93891.34;5076272;28;20200;-69
2022/11/18 01:50:19;;;;;;;18.70;15.90;;;;;;;8.20;79.99;93883.97;5060897;28;20191;-69
2022/11/18 01:52:45;;;;;;;21.50;18.03;;;;;;;8.26;79.64;93881.53;5071883;28;20222;-69
2022/11/18 01:55:20;;;;;;;18.50;16.53;;;;;;;8.12;80.01;93885.59;5074677;28;20194;-69
2022/11/18 01:57:49;;;;;;;17.60;15.83;;;;;;;8.11;80.81;93885.78;5067730;28;20203;-69
2022/11/18 02:00:15;;;;;;;19.73;17.03;;;;;;;7.90;80.37;93888.91;5071088;28;20276;-69
2022/11/18 02:02:40;;;;;;;17.93;16.03;;;;;;;7.91;80.30;93891.38;5065633;28;20267;-69
2022/11/18 02:05:09;;;;;;;17.60;15.83;;;;;;;7.89;80.66;93887.28;5068043;28;20274;-70
2022/11/18 02:07:38;;;;;;;17.07;15.33;;;;;;;7.95;80.20;93889.22;5069520;28;20196;-68
2022/11/18 02:10:05;;;;;;;19.93;16.57;;;;;;;7.90;80.24;93894.13;5066865;28;20291;-69
2022/11/18 02:12:31;;;;;;;19.60;16.93;;;;;;;7.94;80.46;93901.50;5063160;28;20646;-69
2022/11/18 02:14:58;;;;;;;21.57;17.60;;;;;;;8.00;80.43;93896.59;5059430;28;20234;-69
2022/11/18 02:17:35;;;;;;;18.73;16.83;;;;;;;7.94;80.76;93888.41;5058150;28;20209;-69
2022/11/18 02:20:19;;;;;;;21.50;17.73;;;;;;;7.89;80.90;93897.75;5062094;28;20192;-69
2022/11/18 02:23:12;;;;;;;20.17;18.07;;;;;;;7.94;80.91;93898.88;5062382;28;20189;-69
2022/11/18 02:26:15;;;;;;;24.13;18.10;;;;;;;8.02;80.70;93886.75;5062876;28;20197;-68
2022/11/18 02:29:05;;;;;;;20.30;18.20;;;;;;;8.01;81.05;93892.97;5064419;28;20185;-68
2022/11/18 02:31:51;;;;;;;19.90;17.73;;;;;;;7.89;80.77;93885.47;5063362;28;20257;-68
2022/11/18 02:34:16;;;;;;;21.33;18.93;;;;;;;7.97;81.65;93883.84;5058400;28;20200;-69
2022/11/18 02:36:56;;;;;;;20.73;18.53;;;;;;;7.94;81.40;93891.03;5059420;28;20197;-69
2022/11/18 02:40:00;;;;;;;25.13;18.60;;;;;;;7.93;80.88;93884.13;5065310;28;20197;-69
2022/11/18 02:42:30;;;;;;;22.70;19.17;;;;;;;7.89;81.34;93888.09;5060273;28;20201;-69
2022/11/18 02:45:13;;;;;;;21.60;18.37;;;;;;;7.92;81.34;93886.94;5058465;28;20545;-69
2022/11/18 02:47:41;;;;;;;20.13;17.97;;;;;;;7.69;81.34;93882.31;5048335;28;20194;-69
2022/11/18 02:50:10;;;;;;;21.37;18.27;;;;;;;7.69;81.23;93884.13;5061535;28;20200;-69
2022/11/18 02:52:39;;;;;;;21.63;19.00;;;;;;;7.73;81.11;93867.94;5059502;28;20209;-69
2022/11/18 02:55:07;;;;;;;22.83;18.87;;;;;;;7.65;80.40;93872.38;5058221;28;20193;-69
2022/11/18 02:57:35;;;;;;;21.27;19.07;;;;;;;7.71;80.60;93885.59;5053448;28;20197;-69
2022/11/18 03:00:00;;;;;;;22.63;18.10;;;;;;;7.69;80.64;93876.28;5064030;28;20266;-69
2022/11/18 03:02:26;;;;;;;21.70;19.50;;;;;;;7.77;80.59;93880.72;5062390;28;20176;-69
2022/11/18 03:04:56;;;;;;;21.20;19.00;;;;;;;7.91;80.09;93893.13;5057122;28;20255;-69
2022/11/18 03:07:31;;;;;;;23.20;19.10;;;;;;;8.01;79.84;93892.97;5057832;28;20189;-69
2022/11/18 03:09:58;;;;;;;22.80;19.70;;;;;;;7.86;80.26;93885.78;5055120;28;20188;-69
2022/11/18 03:13:01;;;;;;;22.70;19.20;;;;;;;7.79;80.69;93891.84;5060659;28;20229;-69
2022/11/18 03:15:38;;;;;;;22.73;18.93;;;;;;;7.71;80.81;93892.63;5063518;28;20234;-69
2022/11/18 03:18:32;;;;;;;24.07;19.10;;;;;;;7.72;80.84;93897.72;5066973;28;20208;-69
2022/11/18 03:21:20;;;;;;;22.00;18.23;;;;;;;7.51;80.57;93894.72;5069765;28;20282;-68
2022/11/18 03:24:04;;;;;;;22.03;17.37;;;;;;;7.34;81.29;93886.03;5079114;28;20180;-69
2022/11/18 03:26:40;;;;;;;19.83;17.37;;;;;;;7.50;80.99;93883.44;5067529;28;20184;-69
2022/11/18 03:29:22;;;;;;;19.23;17.03;;;;;;;7.51;80.17;93879.88;5077073;28;20167;-69
2022/11/18 03:32:13;;;;;;;18.83;16.93;;;;;;;7.43;80.57;93885.09;5064202;28;20193;-69
2022/11/18 03:34:39;;;;;;;20.50;18.30;;;;;;;7.48;80.29;93876.72;5070987;28;20195;-69
2022/11/18 03:37:08;;;;;;;19.80;17.33;;;;;;;7.41;80.48;93879.19;5065077;28;20192;-69
2022/11/18 03:39:37;;;;;;;19.50;17.50;;;;;;;7.41;80.25;93881.81;5067073;28;20353;-69
2022/11/18 03:42:11;;;;;;;19.63;17.47;;;;;;;7.40;80.72;93885.38;5063686;28;20189;-69
2022/11/18 03:44:42;;;;;;;19.83;17.10;;;;;;;7.39;80.80;93886.38;5062950;28;20264;-69
2022/11/18 03:47:14;;;;;;;20.07;17.97;;;;;;;7.28;81.48;93877.03;5065160;28;20210;-69
2022/11/18 03:49:46;;;;;;;21.30;18.77;;;;;;;7.32;81.58;93874.91;5062731;28;20185;-68
2022/11/18 03:52:21;;;;;;;19.40;17.20;;;;;;;7.40;81.48;93868.88;5066692;28;20197;-69
2022/11/18 03:54:51;;;;;;;22.77;18.37;;;;;;;7.37;80.97;93864.78;5064219;28;20255;-69
2022/11/18 03:57:45;;;;;;;21.03;17.40;;;;;;;7.32;81.24;93872.28;5060057;28;20185;-69
2022/11/18 04:00:14;;;;;;;20.67;17.33;;;;;;;7.33;80.87;93867.91;5068196;28;20239;-69
2022/11/18 04:02:39;;;;;;;20.40;17.73;;;;;;;7.39;80.81;93870.69;5068519;28;20188;-69
2022/11/18 04:05:09;;;;;;;21.27;18.47;;;;;;;7.46;80.27;93857.78;5064205;28;20253;-69
2022/11/18 04:07:57;;;;;;;18.90;16.90;;;;;;;7.53;80.20;93866.63;5075177;28;20189;-70
2022/11/18 04:10:40;;;;;;;17.53;15.73;;;;;;;7.58;80.30;93866.13;5065311;28;20197;-70
2022/11/18 04:13:16;;;;;;;18.00;15.53;;;;;;;7.65;79.75;93864.53;5071845;28;20242;-69
2022/11/18 04:15:43;;;;;;;17.00;15.00;;;;;;;7.59;80.37;93881.69;5065395;28;20215;-69
2022/11/18 04:18:09;;;;;;;27.77;19.43;;;;;;;7.64;81.09;93868.09;5061607;28;20197;-70
2022/11/18 04:20:36;;;;;;;25.93;19.30;;;;;;;7.67;81.34;93868.63;5064694;28;20272;-70
2022/11/18 04:23:02;;;;;;;43.40;21.17;;;;;;;7.70;81.86;93877.94;5058889;28;20192;-69
2022/11/18 04:25:28;;;;;;;35.43;24.13;;;;;;;7.70;82.32;93862.25;5068940;28;20271;-69
2022/11/18 04:27:54;;;;;;;35.33;24.63;;;;;;;7.80;82.97;93883.00;5059169;28;20185;-69
2022/11/18 04:30:19;;;;;;;72.70;25.23;;;;;;;7.76;83.59;93874.66;5061718;28;20192;-69
2022/11/18 04:32:45;;;;;;;36.57;24.57;;;;;;;7.79;84.11;93861.25;5069806;28;20207;-69
2022/11/18 04:35:10;;;;;;;48.90;25.33;;;;;;;7.90;83.56;93888.91;5065779;28;20237;-70
2022/11/18 04:37:35;;;;;;;42.27;26.13;;;;;;;7.95;83.01;93868.28;5064258;28;20188;-69
2022/11/18 04:40:01;;;;;;;70.70;29.17;;;;;;;7.90;83.59;93887.09;5069070;28;20267;-70
2022/11/18 04:42:27;;;;;;;107.07;30.70;;;;;;;7.88;83.78;93883.81;5072101;28;20229;-70
2022/11/18 04:44:52;;;;;;;55.10;29.87;;;;;;;7.87;84.41;93881.38;5085042;28;20192;-70
2022/11/18 04:47:18;;;;;;;46.13;30.90;;;;;;;7.92;84.25;93882.53;5068077;28;20185;-70
2022/11/18 04:49:43;;;;;;;94.10;30.43;;;;;;;7.80;84.57;93899.50;5069047;28;20195;-70
2022/11/18 04:52:09;;;;;;;63.17;31.10;;;;;;;7.85;84.63;93878.91;5067357;28;20234;-69
2022/11/18 04:54:34;;;;;;;69.97;31.53;;;;;;;7.78;85.20;93891.03;5067172;28;20176;-69
2022/11/18 04:56:59;;;;;;;48.53;32.23;;;;;;;7.72;85.39;93896.88;5064883;28;20211;-70
2022/11/18 04:59:27;;;;;;;107.80;37.90;;;;;;;7.90;85.39;93888.91;5065899;28;20192;-70
2022/11/18 05:01:53;;;;;;;53.57;34.80;;;;;;;7.83;85.48;93899.22;5059480;28;20188;-70
2022/11/18 05:04:23;;;;;;;67.60;38.77;;;;;;;7.85;85.36;93888.56;5063726;28;20279;-69
2022/11/18 05:06:49;;;;;;;60.63;35.90;;;;;;;7.85;85.49;93881.53;5065410;28;20195;-69
2022/11/18 05:09:16;;;;;;;68.57;36.07;;;;;;;7.85;85.19;93889.38;5071761;28;20192;-69
2022/11/18 05:14:27;;;;;;;115.43;38.47;;;;;;;7.79;86.34;93892.66;5077663;28;20226;-69
2022/11/18 05:16:53;;;;;;;49.27;35.47;;;;;;;7.68;86.33;93885.13;5069518;28;20464;-69
2022/11/18 05:19:19;;;;;;;60.77;36.23;;;;;;;7.73;86.48;93894.13;5065840;28;20189;-71
2022/11/18 05:21:44;;;;;;;52.83;35.03;;;;;;;7.77;86.53;93906.88;5071809;28;20188;-68
2022/11/18 05:24:10;;;;;;;123.93;38.87;;;;;;;7.94;85.99;93909.34;5051834;28;20185;-69
2022/11/18 05:26:35;;;;;;;81.70;38.53;;;;;;;7.87;86.19;93900.50;5054316;28;20189;-69
2022/11/18 05:29:01;;;;;;;109.80;39.27;;;;;;;7.72;86.37;93896.88;5059757;28;20180;-67
2022/11/18 05:31:26;;;;;;;110.33;37.60;;;;;;;7.71;87.01;93906.53;5060776;28;20195;-69
2022/11/18 05:33:52;;;;;;;67.13;37.27;;;;;;;7.81;86.68;93901.16;5062586;28;20205;-69
2022/11/18 05:36:19;;;;;;;80.93;37.57;;;;;;;7.87;86.99;93900.50;5070955;28;20189;-69
2022/11/18 05:38:45;;;;;;;58.27;36.50;;;;;;;7.88;86.77;93894.28;5063007;28;20242;-69
2022/11/18 05:43:09;;;;;;;61.33;35.27;;;;;;;7.92;86.83;93907.88;5061425;28;20184;-69
2022/11/18 05:43:57;;;;;;;53.50;34.67;;;;;;;7.86;86.73;93909.34;5075693;28;20218;-69
2022/11/18 05:46:22;;;;;;;54.00;31.40;;;;;;;7.98;86.62;93901.97;5069485;28;20265;-68
2022/11/18 05:48:48;;;;;;;49.57;30.70;;;;;;;8.03;86.21;93906.75;5058547;28;20188;-71
2022/11/18 05:51:58;;;;;;;95.97;32.60;;;;;;;8.07;85.38;93895.78;5096421;27;20548;-69
2022/11/18 05:54:25;;;;;;;41.43;31.10;;;;;;;8.06;85.41;93895.94;5097856;28;20248;-67
2022/11/18 05:56:50;;;;;;;50.23;27.00;;;;;;;8.13;85.22;93905.59;5081388;28;20184;-67
2022/11/18 05:59:15;;;;;;;76.30;28.10;;;;;;;8.19;84.38;93896.25;5097575;28;20199;-69
2022/11/18 06:01:46;;;;;;;54.57;30.47;;;;;;;7.97;84.88;93886.47;5097458;28;20191;-68
2022/11/18 06:04:36;;;;;;;32.93;29.33;;;;;;;8.04;84.94;93901.31;5097726;28;20188;-68
2022/11/18 06:07:07;;;;;;;68.37;32.77;;;;;;;8.15;84.66;93901.00;5112849;28;20183;-69
2022/11/18 06:09:38;;;;;;;46.80;33.20;;;;;;;8.11;84.55;93896.25;5096890;28;20290;-69
2022/11/18 06:12:04;;;;;;;42.13;28.93;;;;;;;7.88;86.08;93894.28;5083071;28;20189;-68
2022/11/18 06:14:39;;;;;;;37.87;29.47;;;;;;;7.94;86.51;93900.69;5082926;28;20184;-73
2022/11/18 06:17:10;;;;;;;72.30;28.13;;;;;;;8.03;86.04;93893.66;5078383;28;20199;-66
2022/11/18 06:19:36;;;;;;;185.10;26.23;;;;;;;8.12;86.55;93890.03;5094611;28;20188;-66
2022/11/18 06:22:09;;;;;;;76.73;27.17;;;;;;;7.98;87.73;93878.41;5068804;28;20192;-67
2022/11/18 06:24:35;;;;;;;50.27;27.23;;;;;;;8.18;87.86;93882.34;5095264;28;20189;-70
2022/11/18 06:27:01;;;;;;;64.20;28.30;;;;;;;8.31;87.39;93900.19;5081876;28;20184;-69
2022/11/18 06:29:27;;;;;;;75.07;29.10;;;;;;;8.29;86.85;93894.28;5098234;28;20184;-66
2022/11/18 06:31:53;;;;;;;76.87;30.67;;;;;;;8.21;86.47;93891.69;5080150;28;20208;-69
2022/11/18 06:34:18;;;;;;;106.27;30.27;;;;;;;8.41;87.15;93881.69;5099302;28;20199;-70
2022/11/18 06:36:43;;;;;;;60.67;27.57;;;;;;;8.47;87.00;93878.41;5080387;28;20271;-70
2022/11/18 06:39:09;;;;;;;63.80;29.70;;;;;;;8.52;87.03;93886.56;5082850;28;20176;-71
2022/11/18 06:41:34;;;;;;;75.33;29.33;;;;;;;8.64;86.74;93881.00;5079884;28;20173;-63
2022/11/18 06:44:00;;;;;;;71.77;28.90;;;;;;;8.47;87.04;93881.00;5083681;28;20192;-74
2022/11/18 06:49:10;;;;;;;56.07;29.37;;;;;;;8.74;86.11;93899.97;5079686;28;20222;-67
2022/11/18 06:51:35;;;;;;;63.30;27.10;;;;;;;8.76;85.88;93885.69;5084863;28;20216;-70
2022/11/18 06:54:01;;;;;;;63.40;27.73;;;;;;;8.79;85.12;93889.78;5098987;28;20184;-72
2022/11/18 06:56:26;;;;;;;70.63;27.30;;;;;;;8.76;85.64;93890.13;5097077;28;20230;-68
2022/11/18 06:58:57;;;;;;;69.83;28.23;;;;;;;8.88;85.34;93891.41;5082957;28;20184;-68
2022/11/18 07:01:28;;;;;;;46.17;28.53;;;;;;;8.80;85.60;93899.31;5096937;28;20230;-63
2022/11/18 07:03:56;;;;;;;49.87;28.93;;;;;;;8.93;85.37;93901.41;5068924;28;20181;-68
2022/11/18 07:06:24;;;;;;;61.03;28.70;;;;;;;8.95;85.35;93900.22;5083757;28;20256;-69
2022/11/18 07:08:50;;;;;;;73.87;26.17;;;;;;;8.93;85.15;93885.69;5068103;28;20204;-68
2022/11/18 07:11:18;;;;;;;85.83;26.60;;;;;;;9.01;85.35;93893.50;5065744;28;20244;-70
2022/11/18 07:13:44;;;;;;;54.80;28.30;;;;;;;8.98;85.16;93893.81;5066942;28;20177;-71
2022/11/18 07:16:15;;;;;;;47.77;26.53;;;;;;;8.88;85.65;93886.19;5084596;28;20201;-72
2022/11/18 07:18:42;;;;;;;56.70;26.90;;;;;;;9.03;85.31;93894.13;5068644;28;20200;-68
2022/11/18 07:21:11;;;;;;;105.90;24.47;;;;;;;9.17;84.71;93876.91;5068212;28;20181;-64
2022/11/18 07:23:37;;;;;;;42.20;24.20;;;;;;;9.37;84.59;93867.59;5065960;28;20280;-67
2022/11/18 07:26:03;;;;;;;44.03;22.70;;;;;;;9.43;84.10;93855.59;5073827;28;20268;-68
2022/11/18 07:28:29;;;;;;;37.07;22.07;;;;;;;9.56;83.51;93852.41;5069890;28;20237;-68
2022/11/18 07:31:02;;;;;;;49.03;23.60;;;;;;;9.69;82.89;93861.31;5069363;28;20215;-72
2022/11/18 07:33:28;;;;;;;50.23;24.83;;;;;;;9.71;83.04;93854.09;5083728;28;20205;-68
2022/11/18 07:35:53;;;;;;;42.37;24.40;;;;;;;9.65;83.70;93860.06;5069163;28;20473;-65
2022/11/18 07:38:19;;;;;;;47.20;24.43;;;;;;;9.82;83.80;93854.69;5068344;28;20189;-69
2022/11/18 07:40:44;;;;;;;42.40;25.53;;;;;;;10.03;83.43;93840.91;5086375;28;20184;-70
2022/11/18 07:43:10;;;;;;;49.10;27.93;;;;;;;9.78;83.26;93848.13;5072593;28;20204;-70
2022/11/18 07:45:35;;;;;;;43.77;26.03;;;;;;;9.87;83.61;93842.66;5069382;28;20181;-71
2022/11/18 07:48:01;;;;;;;41.07;26.63;;;;;;;9.81;83.22;93853.88;5065539;28;20185;-64
2022/11/18 07:50:26;;;;;;;55.30;27.50;;;;;;;9.75;83.93;93854.56;5067138;28;20232;-67
2022/11/18 07:52:54;;;;;;;45.97;27.73;;;;;;;9.82;84.00;93850.25;5067809;28;20212;-63
2022/11/18 07:55:20;;;;;;;58.43;27.50;;;;;;;9.80;83.85;93844.34;5069341;28;20181;-62
2022/11/18 07:57:45;;;;;;;55.17;27.93;;;;;;;9.90;83.71;93855.44;5069210;28;20227;-63
2022/11/18 08:00:11;;;;;;;49.47;28.73;;;;;;;9.85;83.99;93875.34;5065879;28;20219;-63
2022/11/18 08:02:36;;;;;;;45.80;27.20;;;;;;;10.01;83.41;93880.47;5070611;28;20241;-64
2022/11/18 08:05:02;;;;;;;62.07;25.57;;;;;;;9.80;82.48;93881.09;5073285;28;20181;-65
2022/11/18 08:07:27;;;;;;;65.60;28.23;;;;;;;9.40;84.45;93882.97;5065011;28;20216;-65
2022/11/18 08:09:53;;;;;;;46.23;25.43;;;;;;;9.41;85.42;93894.28;5068636;28;20200;-67
2022/11/18 08:12:18;;;;;;;52.73;26.20;;;;;;;9.58;85.59;93895.84;5070899;28;20199;-66
2022/11/18 08:14:43;;;;;;;51.10;26.10;;;;;;;9.75;84.88;93903.63;5069872;28;20256;-66
2022/11/18 08:17:09;;;;;;;48.27;27.90;;;;;;;9.80;84.12;93909.16;5068444;28;20180;-65
2022/11/18 08:19:34;;;;;;;73.77;30.33;;;;;;;9.84;83.55;93894.72;5082528;28;20693;-66
2022/11/18 08:22:00;;;;;;;50.37;31.07;;;;;;;9.83;83.59;93877.31;5069470;28;20181;-64
2022/11/18 08:24:25;;;;;;;56.80;33.23;;;;;;;9.70;83.97;93877.88;5069395;28;20252;-64
2022/11/18 08:26:50;;;;;;;60.87;32.53;;;;;;;9.69;84.49;93871.00;5063513;28;20253;-64
2022/11/18 08:29:16;;;;;;;51.33;31.23;;;;;;;9.61;85.13;93853.50;5069365;28;20180;-64
2022/11/18 08:31:41;;;;;;;50.13;30.13;;;;;;;9.62;85.41;93877.94;5071276;28;20204;-64
2022/11/18 08:34:07;;;;;;;54.20;30.50;;;;;;;9.67;85.25;93865.91;5070460;28;20201;-64
2022/11/18 08:36:35;;;;;;;61.73;31.17;;;;;;;9.69;85.22;93866.56;5068807;28;20191;-68
2022/11/18 08:39:03;;;;;;;49.37;29.80;;;;;;;9.70;85.03;93864.75;5061959;28;20323;-68
2022/11/18 08:41:38;;;;;;;55.77;31.43;;;;;;;9.71;84.97;93854.09;5065705;28;20185;-67
2022/11/18 08:44:04;;;;;;;54.40;31.60;;;;;;;9.84;84.90;93836.94;5062240;28;20204;-68
2022/11/18 08:46:30;;;;;;;53.87;30.40;;;;;;;9.89;84.48;93837.22;5069146;28;20314;-63
2022/11/18 08:48:56;;;;;;;48.70;29.33;;;;;;;9.86;84.78;93845.44;5069631;28;20284;-64
2022/11/18 08:51:21;;;;;;;49.27;29.33;;;;;;;9.81;84.67;93835.50;5071025;28;20250;-63
2022/11/18 08:53:47;;;;;;;49.80;30.13;;;;;;;9.81;84.60;93816.28;5066633;28;20206;-70
2022/11/18 08:56:18;;;;;;;50.93;31.07;;;;;;;9.71;85.40;93811.28;5065259;28;20263;-71
2022/11/18 08:58:44;;;;;;;64.00;32.00;;;;;;;9.74;85.17;93808.31;5068492;28;20196;-69
2022/11/18 09:01:11;;;;;;;51.83;30.67;;;;;;;9.75;85.29;93815.19;5067614;28;20172;-74
2022/11/18 09:03:36;;;;;;;59.07;32.93;;;;;;;9.69;85.28;93790.44;5069065;28;20183;-67
2022/11/18 09:06:12;;;;;;;53.63;31.87;;;;;;;9.80;84.85;93793.66;5063610;28;20185;-73
2022/11/18 09:08:38;;;;;;;56.93;32.57;;;;;;;9.98;85.03;93775.78;5081288;28;20188;-64
2022/11/18 09:11:10;;;;;;;52.57;32.43;;;;;;;10.10;84.39;93776.97;5064996;28;20205;-64
2022/11/18 09:13:36;;;;;;;52.80;32.70;;;;;;;10.09;84.11;93777.16;5080596;28;20185;-70
2022/11/18 09:16:02;;;;;;;58.17;36.63;;;;;;;10.35;83.29;93776.75;5083023;28;20192;-67
2022/11/18 09:18:28;;;;;;;60.00;35.43;;;;;;;10.19;83.33;93784.78;5081876;28;20189;-70
2022/11/18 09:20:59;;;;;;;57.83;34.50;;;;;;;10.19;83.84;93775.09;5081710;28;20180;-71
2022/11/18 09:23:24;;;;;;;58.20;34.43;;;;;;;10.22;83.75;93766.84;5064837;28;20189;-67
2022/11/18 09:26:18;;;;;;;59.17;36.87;;;;;;;10.43;83.22;93763.53;5063748;28;20185;-70
2022/11/18 09:28:44;;;;;;;53.90;36.10;;;;;;;10.19;83.72;93775.09;5064724;28;20193;-65
2022/11/18 09:31:12;;;;;;;60.40;38.33;;;;;;;10.22;83.41;93779.16;5064807;28;20211;-65
2022/11/18 09:33:38;;;;;;;62.43;37.97;;;;;;;10.22;83.45;93769.47;5081272;28;20269;-68
2022/11/18 09:36:16;;;;;;;56.63;35.63;;;;;;;10.24;83.30;93759.59;5065262;28;20191;-71
2022/11/18 09:38:42;;;;;;;57.73;36.77;;;;;;;10.21;83.89;93759.13;5064098;28;20421;-67
2022/11/18 09:41:25;;;;;;;56.33;36.60;;;;;;;10.47;82.91;93762.16;5065487;28;20185;-69
2022/11/18 09:44:15;;;;;;;54.73;35.03;;;;;;;10.48;82.48;93765.63;5066775;28;20237;-72
2022/11/18 09:47:02;;;;;;;53.47;35.43;;;;;;;10.44;82.13;93733.63;5081237;28;20489;-63
2022/11/18 09:49:40;;;;;;;52.03;35.90;;;;;;;10.42;82.76;93722.47;5065642;28;20198;-71
2022/11/18 09:52:11;;;;;;;50.23;35.43;;;;;;;10.55;82.59;93722.63;5081028;28;20228;-69
2022/11/18 09:54:38;;;;;;;52.77;36.60;;;;;;;10.78;81.11;93708.56;5077466;28;20186;-68
2022/11/18 09:57:13;;;;;;;51.73;36.93;;;;;;;10.49;82.17;93710.22;5071262;28;20213;-74
2022/11/18 09:59:40;;;;;;;54.93;37.13;;;;;;;10.50;82.24;93719.72;5062976;28;20215;-68
2022/11/18 10:02:36;;;;;;;46.97;36.30;;;;;;;10.45;82.32;93719.50;5082425;28;20181;-72
2022/11/18 10:05:17;;;;;;;51.23;36.33;;;;;;;10.50;82.05;93703.16;5081960;28;20177;-71
2022/11/18 10:08:07;;;;;;;52.57;37.77;;;;;;;10.46;82.15;93694.03;5063954;28;20214;-69
2022/11/18 10:11:05;;;;;;;52.77;37.53;;;;;;;10.53;81.83;93713.31;5071730;28;20201;-67
2022/11/18 10:13:53;;;;;;;53.50;36.93;;;;;;;10.56;80.96;93711.13;5083684;28;20528;-67
2022/11/18 10:16:38;;;;;;;50.07;37.23;;;;;;;10.91;80.85;93726.31;5065533;28;20180;-72
2022/11/18 10:19:45;;;;;;;50.60;34.60;;;;;;;11.38;78.74;93717.06;5069207;28;20243;-72
2022/11/18 10:22:29;;;;;;;42.53;32.97;;;;;;;11.58;76.99;93701.47;5082739;28;20264;-71
2022/11/18 10:24:57;;;;;;;44.50;33.17;;;;;;;11.83;76.72;93689.47;5066549;28;20180;-71
2022/11/18 10:27:32;;;;;;;43.67;33.93;;;;;;;12.24;74.40;93693.22;5068545;28;20185;-64
2022/11/18 10:30:00;;;;;;;64.53;49.77;;;;;;;12.41;74.00;93683.19;5068528;28;20184;-63
2022/11/18 10:32:26;;;;;;;48.03;36.40;;;;;;;12.71;73.67;93665.25;5064356;28;20185;-69
2022/11/18 10:34:57;;;;;;;45.63;34.63;;;;;;;13.00;71.84;93667.56;5083988;28;20223;-66
2022/11/18 10:37:30;;;;;;;44.47;34.27;;;;;;;13.14;71.15;93668.41;5070548;28;20193;-69
2022/11/18 10:40:01;;;;;;;46.63;33.97;;;;;;;13.00;72.11;93661.47;5088375;28;20177;-67
2022/11/18 10:42:45;;;;;;;48.80;36.33;;;;;;;13.20;71.59;93657.06;5072201;28;20188;-69
2022/11/18 10:45:19;;;;;;;44.87;34.90;;;;;;;13.10;71.11;93677.75;5074274;28;20181;-68
2022/11/18 10:47:55;;;;;;;42.28;33.00;;;;;;;12.95;71.24;93664.72;5068170;28;20184;-70
2022/11/18 10:50:49;;;;;;;40.10;32.43;;;;;;;12.98;70.10;93652.94;5072536;28;20269;-70
2022/11/18 10:53:35;;;;;;;42.23;30.93;;;;;;;12.99;70.08;93644.00;5067379;28;20193;-68
2022/11/18 10:56:04;;;;;;;41.60;32.42;;;;;;;13.55;68.69;93635.78;5073526;28;20180;-70
2022/11/18 10:58:34;;;;;;;39.00;31.13;;;;;;;13.61;68.91;93626.25;5056441;28;20188;-66
2022/11/18 11:01:21;;;;;;;43.92;32.00;;;;;;;14.07;67.03;93634.09;5089333;28;20176;-70
2022/11/18 11:04:18;;;;;;;38.10;28.77;;;;;;;14.34;66.00;93631.38;5087250;28;20185;-69
2022/11/18 11:06:44;;;;;;;38.13;29.80;;;;;;;14.40;66.20;93614.66;5071966;28;20181;-71
2022/11/18 11:09:13;;;;;;;34.75;26.55;;;;;;;14.90;64.05;93614.88;5065868;28;20176;-70
2022/11/18 11:11:44;;;;;;;35.40;26.17;;;;;;;15.21;62.58;93637.09;5068303;28;20211;-67
2022/11/18 11:14:27;;;;;;;32.60;27.27;;;;;;;15.35;61.13;93648.41;5071863;28;20176;-65
2022/11/18 11:16:56;;;;;;;34.95;27.20;;;;;;;15.20;60.66;93638.09;5073109;28;20177;-65
2022/11/18 11:19:29;;;;;;;31.55;24.80;;;;;;;15.47;60.20;93627.31;5073951;28;20193;-64
2022/11/18 11:21:55;;;;;;;33.45;23.85;;;;;;;15.73;58.83;93613.88;5071559;28;20188;-71
2022/11/18 11:24:25;;;;;;;32.80;25.13;;;;;;;15.68;58.87;93600.44;5072992;28;20187;-66
2022/11/18 11:27:02;;;;;;;30.98;23.55;;;;;;;15.83;57.90;93603.59;5066444;28;20181;-68
2022/11/18 11:30:06;;;;;;;30.27;24.45;;;;;;;15.72;58.42;93606.97;5068606;28;20282;-69
2022/11/18 11:33:10;;;;;;;30.65;24.75;;;;;;;15.46;59.08;93591.28;5067684;28;20248;-71
2022/11/18 11:35:49;;;;;;;31.08;24.15;;;;;;;15.06;60.84;93591.56;5087584;28;20204;-66
2022/11/18 11:38:39;;;;;;;31.50;24.80;;;;;;;14.74;61.79;93599.50;5085658;28;20188;-68
2022/11/18 11:41:08;;;;;;;34.70;27.93;;;;;;;14.66;62.45;93600.53;5064352;28;20560;-70
2022/11/18 11:43:34;;;;;;;34.45;25.92;;;;;;;14.53;63.16;93604.06;5060330;28;20184;-70
2022/11/18 11:46:08;;;;;;;35.73;27.70;;;;;;;14.39;62.53;93602.47;5073661;28;20177;-69
2022/11/18 11:48:34;;;;;;;36.83;27.42;;;;;;;14.07;63.65;93594.44;5084952;28;20235;-74
2022/11/18 11:51:20;;;;;;;36.40;27.90;;;;;;;14.06;64.43;93587.53;5075827;28;20220;-74
2022/11/18 11:54:04;;;;;;;31.13;25.85;;;;;;;14.02;64.93;93583.69;5071079;28;20247;-65